sensor_id;sensor_type;location;lat;lon;timestamp;P1;durP1;ratioP1;P2;durP2;ratioP2
58071;SDS011;60383;46.626;18.866;2023-02-18T13:13:21;36.58;;;22.10;;
58071;SDS011;60383;46.626;18.866;2023-02-18T13:15:54;38.72;;;23.17;;
58071;SDS011;60383;46.626;18.866;2023-02-18T13:18:23;40.35;;;25.45;;
58071;SDS011;60383;46.626;18.866;2023-02-18T13:20:55;38.55;;;25.38;;
58071;SDS011;60383;46.626;18.866;2023-02-18T13:23:25;38.13;;;24.40;;
58071;SDS011;60383;46.626;18.866;2023-02-18T13:28:28;41.65;;;25.15;;
58071;SDS011;60383;46.626;18.866;2023-02-18T13:33:38;43.22;;;26.10;;
58071;SDS011;60383;46.626;18.866;2023-02-18T13:36:10;41.80;;;25.70;;
58071;SDS011;60383;46.626;18.866;2023-02-18T13:38:52;39.00;;;24.45;;
58071;SDS011;60383;46.626;18.866;2023-02-18T13:41:35;43.95;;;26.90;;
58071;SDS011;60383;46.626;18.866;2023-02-18T13:46:47;41.65;;;25.52;;
58071;SDS011;60383;46.626;18.866;2023-02-18T13:49:14;42.50;;;24.92;;
58071;SDS011;60383;46.626;18.866;2023-02-18T13:51:46;37.75;;;24.65;;
58071;SDS011;60383;46.626;18.866;2023-02-18T13:56:43;39.25;;;23.30;;
58071;SDS011;60383;46.626;18.866;2023-02-18T14:02:06;40.55;;;24.30;;
58071;SDS011;60383;46.626;18.866;2023-02-18T14:04:53;38.97;;;23.77;;
58071;SDS011;60383;46.626;18.866;2023-02-18T14:07:49;43.30;;;25.55;;
58071;SDS011;60383;46.626;18.866;2023-02-18T14:10:34;40.90;;;25.95;;
58071;SDS011;60383;46.626;18.866;2023-02-18T14:13:16;38.10;;;21.95;;
58071;SDS011;60383;46.626;18.866;2023-02-18T14:15:53;52.53;;;30.67;;
58071;SDS011;60383;46.626;18.866;2023-02-18T14:18:31;45.83;;;27.75;;
58071;SDS011;60383;46.626;18.866;2023-02-18T14:21:20;38.35;;;23.48;;
58071;SDS011;60383;46.626;18.866;2023-02-18T14:23:59;45.75;;;26.15;;
58071;SDS011;60383;46.626;18.866;2023-02-18T14:26:34;41.58;;;26.17;;
58071;SDS011;60383;46.626;18.866;2023-02-18T14:29:04;44.55;;;25.40;;
58071;SDS011;60383;46.626;18.866;2023-02-18T14:31:45;43.35;;;25.95;;
58071;SDS011;60383;46.626;18.866;2023-02-18T14:34:20;42.83;;;27.05;;
58071;SDS011;60383;46.626;18.866;2023-02-18T14:37:03;42.25;;;24.85;;
58071;SDS011;60383;46.626;18.866;2023-02-18T14:42:27;42.55;;;26.55;;
58071;SDS011;60383;46.626;18.866;2023-02-18T14:46:14;42.00;;;23.43;;
58071;SDS011;60383;46.626;18.866;2023-02-18T14:48:44;52.35;;;27.35;;
58071;SDS011;60383;46.626;18.866;2023-02-18T14:51:19;45.15;;;27.45;;
58071;SDS011;60383;46.626;18.866;2023-02-18T14:53:48;44.30;;;27.40;;
58071;SDS011;60383;46.626;18.866;2023-02-18T14:56:18;46.75;;;27.25;;
58071;SDS011;60383;46.626;18.866;2023-02-18T14:58:46;43.88;;;26.88;;
58071;SDS011;60383;46.626;18.866;2023-02-18T15:01:19;50.85;;;28.83;;
58071;SDS011;60383;46.626;18.866;2023-02-18T15:03:47;46.20;;;25.88;;
58071;SDS011;60383;46.626;18.866;2023-02-18T15:06:21;44.75;;;27.17;;
58071;SDS011;60383;46.626;18.866;2023-02-18T15:08:46;48.50;;;27.60;;
58071;SDS011;60383;46.626;18.866;2023-02-18T15:11:12;45.13;;;25.00;;
58071;SDS011;60383;46.626;18.866;2023-02-18T15:13:41;43.88;;;26.58;;
58071;SDS011;60383;46.626;18.866;2023-02-18T15:16:18;41.22;;;24.75;;
58071;SDS011;60383;46.626;18.866;2023-02-18T15:18:48;44.50;;;26.17;;
58071;SDS011;60383;46.626;18.866;2023-02-18T15:21:23;47.75;;;27.75;;
58071;SDS011;60383;46.626;18.866;2023-02-18T15:23:53;44.15;;;27.30;;
58071;SDS011;60383;46.626;18.866;2023-02-18T15:26:19;47.97;;;28.35;;
58071;SDS011;60383;46.626;18.866;2023-02-18T15:31:29;44.40;;;25.42;;
58071;SDS011;60383;46.626;18.866;2023-02-18T15:33:59;42.65;;;23.45;;
58071;SDS011;60383;46.626;18.866;2023-02-18T15:36:25;49.90;;;27.73;;
58071;SDS011;60383;46.626;18.866;2023-02-18T15:38:51;39.47;;;23.17;;
58071;SDS011;60383;46.626;18.866;2023-02-18T15:41:17;46.85;;;26.23;;
58071;SDS011;60383;46.626;18.866;2023-02-18T15:43:54;40.97;;;22.73;;
58071;SDS011;60383;46.626;18.866;2023-02-18T15:46:27;47.00;;;25.95;;
58071;SDS011;60383;46.626;18.866;2023-02-18T15:48:53;48.72;;;28.60;;
58071;SDS011;60383;46.626;18.866;2023-02-18T15:51:24;40.25;;;22.30;;
58071;SDS011;60383;46.626;18.866;2023-02-18T15:53:53;47.13;;;25.33;;
58071;SDS011;60383;46.626;18.866;2023-02-18T15:56:28;49.80;;;29.55;;
58071;SDS011;60383;46.626;18.866;2023-02-18T16:02:08;45.45;;;24.90;;
58071;SDS011;60383;46.626;18.866;2023-02-18T16:04:40;52.03;;;27.80;;
58071;SDS011;60383;46.626;18.866;2023-02-18T16:11:05;47.10;;;23.58;;
58071;SDS011;60383;46.626;18.866;2023-02-18T16:13:18;52.70;;;28.48;;
58071;SDS011;60383;46.626;18.866;2023-02-18T16:15:45;46.53;;;26.45;;
58071;SDS011;60383;46.626;18.866;2023-02-18T16:18:27;40.25;;;24.08;;
58071;SDS011;60383;46.626;18.866;2023-02-18T16:20:59;47.50;;;28.08;;
58071;SDS011;60383;46.626;18.866;2023-02-18T16:23:35;48.38;;;28.35;;
58071;SDS011;60383;46.626;18.866;2023-02-18T16:26:10;47.53;;;27.50;;
58071;SDS011;60383;46.626;18.866;2023-02-18T16:31:06;49.97;;;29.05;;
58071;SDS011;60383;46.626;18.866;2023-02-18T16:33:31;51.58;;;29.17;;
58071;SDS011;60383;46.626;18.866;2023-02-18T16:35:57;48.47;;;28.77;;
58071;SDS011;60383;46.626;18.866;2023-02-18T16:38:23;47.67;;;28.38;;
58071;SDS011;60383;46.626;18.866;2023-02-18T16:40:49;51.22;;;31.08;;
58071;SDS011;60383;46.626;18.866;2023-02-18T16:43:18;50.35;;;29.60;;
58071;SDS011;60383;46.626;18.866;2023-02-18T16:45:50;54.15;;;31.13;;
58071;SDS011;60383;46.626;18.866;2023-02-18T16:48:28;51.70;;;28.92;;
58071;SDS011;60383;46.626;18.866;2023-02-18T16:50:56;51.10;;;29.40;;
58071;SDS011;60383;46.626;18.866;2023-02-18T16:53:24;51.50;;;29.55;;
58071;SDS011;60383;46.626;18.866;2023-02-18T16:55:50;50.45;;;28.38;;
58071;SDS011;60383;46.626;18.866;2023-02-18T16:58:16;51.53;;;29.80;;
58071;SDS011;60383;46.626;18.866;2023-02-18T17:00:42;50.30;;;28.17;;
58071;SDS011;60383;46.626;18.866;2023-02-18T17:03:08;52.40;;;29.85;;
58071;SDS011;60383;46.626;18.866;2023-02-18T17:05:36;52.63;;;30.55;;
58071;SDS011;60383;46.626;18.866;2023-02-18T17:08:17;52.03;;;29.95;;
58071;SDS011;60383;46.626;18.866;2023-02-18T17:10:53;51.33;;;30.65;;
58071;SDS011;60383;46.626;18.866;2023-02-18T17:13:22;51.15;;;30.52;;
58071;SDS011;60383;46.626;18.866;2023-02-18T17:15:50;51.28;;;30.35;;
58071;SDS011;60383;46.626;18.866;2023-02-18T17:18:17;55.00;;;31.58;;
58071;SDS011;60383;46.626;18.866;2023-02-18T17:20:43;50.28;;;29.42;;
58071;SDS011;60383;46.626;18.866;2023-02-18T17:23:13;47.50;;;27.17;;
58071;SDS011;60383;46.626;18.866;2023-02-18T17:25:40;45.53;;;27.10;;
58071;SDS011;60383;46.626;18.866;2023-02-18T17:28:06;49.20;;;29.40;;
58071;SDS011;60383;46.626;18.866;2023-02-18T17:30:34;43.05;;;26.08;;
58071;SDS011;60383;46.626;18.866;2023-02-18T17:33:02;46.40;;;27.02;;
58071;SDS011;60383;46.626;18.866;2023-02-18T17:35:28;44.55;;;25.52;;
58071;SDS011;60383;46.626;18.866;2023-02-18T17:37:54;42.67;;;25.80;;
58071;SDS011;60383;46.626;18.866;2023-02-18T17:40:24;43.10;;;25.08;;
58071;SDS011;60383;46.626;18.866;2023-02-18T17:42:51;46.50;;;26.85;;
58071;SDS011;60383;46.626;18.866;2023-02-18T17:47:57;41.70;;;26.13;;
58071;SDS011;60383;46.626;18.866;2023-02-18T17:50:23;43.40;;;26.15;;
58071;SDS011;60383;46.626;18.866;2023-02-18T17:52:49;41.05;;;22.45;;
58071;SDS011;60383;46.626;18.866;2023-02-18T17:55:36;37.85;;;22.23;;
58071;SDS011;60383;46.626;18.866;2023-02-18T17:58:01;42.22;;;25.60;;
58071;SDS011;60383;46.626;18.866;2023-02-18T18:00:29;44.90;;;25.05;;
58071;SDS011;60383;46.626;18.866;2023-02-18T18:02:56;43.78;;;23.58;;
58071;SDS011;60383;46.626;18.866;2023-02-18T18:07:50;41.42;;;24.63;;
58071;SDS011;60383;46.626;18.866;2023-02-18T18:10:17;44.15;;;26.42;;
58071;SDS011;60383;46.626;18.866;2023-02-18T18:12:45;39.70;;;24.65;;
58071;SDS011;60383;46.626;18.866;2023-02-18T18:15:16;39.03;;;24.30;;
58071;SDS011;60383;46.626;18.866;2023-02-18T18:17:53;40.13;;;24.55;;
58071;SDS011;60383;46.626;18.866;2023-02-18T18:20:21;40.55;;;25.10;;
58071;SDS011;60383;46.626;18.866;2023-02-18T18:22:47;38.83;;;24.50;;
58071;SDS011;60383;46.626;18.866;2023-02-18T18:27:41;39.75;;;23.90;;
58071;SDS011;60383;46.626;18.866;2023-02-18T18:30:07;40.80;;;25.35;;
58071;SDS011;60383;46.626;18.866;2023-02-18T18:32:33;40.58;;;25.25;;
58071;SDS011;60383;46.626;18.866;2023-02-18T18:34:58;41.08;;;24.48;;
58071;SDS011;60383;46.626;18.866;2023-02-18T18:37:24;40.80;;;24.55;;
58071;SDS011;60383;46.626;18.866;2023-02-18T18:39:49;41.17;;;24.20;;
58071;SDS011;60383;46.626;18.866;2023-02-18T18:42:15;41.95;;;25.25;;
58071;SDS011;60383;46.626;18.866;2023-02-18T18:44:40;38.28;;;24.02;;
58071;SDS011;60383;46.626;18.866;2023-02-18T18:47:06;39.55;;;24.67;;
58071;SDS011;60383;46.626;18.866;2023-02-18T18:49:31;40.00;;;24.35;;
58071;SDS011;60383;46.626;18.866;2023-02-18T18:51:57;39.25;;;24.88;;
58071;SDS011;60383;46.626;18.866;2023-02-18T18:54:22;35.33;;;22.98;;
58071;SDS011;60383;46.626;18.866;2023-02-18T18:56:47;36.75;;;23.38;;
58071;SDS011;60383;46.626;18.866;2023-02-18T18:59:14;35.83;;;22.40;;
58071;SDS011;60383;46.626;18.866;2023-02-18T19:01:40;39.00;;;24.67;;
58071;SDS011;60383;46.626;18.866;2023-02-18T19:04:05;38.80;;;23.48;;
58071;SDS011;60383;46.626;18.866;2023-02-18T19:06:31;37.25;;;23.98;;
58071;SDS011;60383;46.626;18.866;2023-02-18T19:08:56;40.40;;;23.98;;
58071;SDS011;60383;46.626;18.866;2023-02-18T19:11:21;40.00;;;25.13;;
58071;SDS011;60383;46.626;18.866;2023-02-18T19:13:47;44.30;;;26.55;;
58071;SDS011;60383;46.626;18.866;2023-02-18T19:16:17;45.75;;;26.42;;
58071;SDS011;60383;46.626;18.866;2023-02-18T19:18:45;44.45;;;25.83;;
58071;SDS011;60383;46.626;18.866;2023-02-18T19:21:11;41.67;;;25.10;;
58071;SDS011;60383;46.626;18.866;2023-02-18T19:23:36;58.25;;;32.95;;
58071;SDS011;60383;46.626;18.866;2023-02-18T19:26:03;38.65;;;25.15;;
58071;SDS011;60383;46.626;18.866;2023-02-18T19:28:28;44.75;;;26.05;;
58071;SDS011;60383;46.626;18.866;2023-02-18T19:30:54;42.90;;;26.25;;
58071;SDS011;60383;46.626;18.866;2023-02-18T19:33:20;38.72;;;23.85;;
58071;SDS011;60383;46.626;18.866;2023-02-18T19:35:45;36.80;;;24.17;;
58071;SDS011;60383;46.626;18.866;2023-02-18T19:38:12;36.95;;;24.67;;
58071;SDS011;60383;46.626;18.866;2023-02-18T19:40:40;39.70;;;23.92;;
58071;SDS011;60383;46.626;18.866;2023-02-18T19:43:07;43.63;;;26.75;;
58071;SDS011;60383;46.626;18.866;2023-02-18T19:45:32;42.80;;;25.10;;
58071;SDS011;60383;46.626;18.866;2023-02-18T19:47:58;43.95;;;27.30;;
58071;SDS011;60383;46.626;18.866;2023-02-18T19:50:25;45.45;;;28.45;;
58071;SDS011;60383;46.626;18.866;2023-02-18T19:52:53;46.42;;;28.42;;
58071;SDS011;60383;46.626;18.866;2023-02-18T19:55:19;47.92;;;28.60;;
58071;SDS011;60383;46.626;18.866;2023-02-18T19:57:46;50.47;;;31.40;;
58071;SDS011;60383;46.626;18.866;2023-02-18T20:00:12;43.05;;;26.15;;
58071;SDS011;60383;46.626;18.866;2023-02-18T20:02:39;40.47;;;26.00;;
58071;SDS011;60383;46.626;18.866;2023-02-18T20:05:05;39.15;;;25.20;;
58071;SDS011;60383;46.626;18.866;2023-02-18T20:07:32;38.75;;;24.75;;
58071;SDS011;60383;46.626;18.866;2023-02-18T20:10:00;40.10;;;25.52;;
58071;SDS011;60383;46.626;18.866;2023-02-18T20:12:25;40.05;;;24.48;;
58071;SDS011;60383;46.626;18.866;2023-02-18T20:14:51;37.25;;;21.77;;
58071;SDS011;60383;46.626;18.866;2023-02-18T20:17:17;38.05;;;23.27;;
58071;SDS011;60383;46.626;18.866;2023-02-18T20:19:43;33.97;;;22.75;;
58071;SDS011;60383;46.626;18.866;2023-02-18T20:22:08;34.17;;;22.25;;
58071;SDS011;60383;46.626;18.866;2023-02-18T20:24:37;37.35;;;22.05;;
58071;SDS011;60383;46.626;18.866;2023-02-18T20:27:06;35.47;;;22.15;;
58071;SDS011;60383;46.626;18.866;2023-02-18T20:29:33;33.22;;;22.35;;
58071;SDS011;60383;46.626;18.866;2023-02-18T20:32:00;33.33;;;22.35;;
58071;SDS011;60383;46.626;18.866;2023-02-18T20:34:26;33.33;;;21.50;;
58071;SDS011;60383;46.626;18.866;2023-02-18T20:36:52;31.80;;;21.52;;
58071;SDS011;60383;46.626;18.866;2023-02-18T20:39:17;34.60;;;22.50;;
58071;SDS011;60383;46.626;18.866;2023-02-18T20:41:44;35.25;;;23.23;;
58071;SDS011;60383;46.626;18.866;2023-02-18T20:44:11;34.50;;;21.05;;
58071;SDS011;60383;46.626;18.866;2023-02-18T20:46:37;34.60;;;21.75;;
58071;SDS011;60383;46.626;18.866;2023-02-18T20:49:04;37.17;;;22.98;;
58071;SDS011;60383;46.626;18.866;2023-02-18T20:51:32;37.67;;;22.75;;
58071;SDS011;60383;46.626;18.866;2023-02-18T20:53:58;35.70;;;22.00;;
58071;SDS011;60383;46.626;18.866;2023-02-18T20:56:24;33.40;;;21.83;;
58071;SDS011;60383;46.626;18.866;2023-02-18T20:58:50;36.50;;;23.92;;
58071;SDS011;60383;46.626;18.866;2023-02-18T21:01:16;37.88;;;23.27;;
58071;SDS011;60383;46.626;18.866;2023-02-18T21:03:45;42.65;;;25.70;;
58071;SDS011;60383;46.626;18.866;2023-02-18T21:06:13;40.22;;;26.92;;
58071;SDS011;60383;46.626;18.866;2023-02-18T21:08:41;34.67;;;22.27;;
58071;SDS011;60383;46.626;18.866;2023-02-18T21:11:09;32.25;;;21.30;;
58071;SDS011;60383;46.626;18.866;2023-02-18T21:13:39;36.20;;;22.65;;
58071;SDS011;60383;46.626;18.866;2023-02-18T21:16:05;34.50;;;22.40;;
58071;SDS011;60383;46.626;18.866;2023-02-18T21:18:31;34.40;;;20.85;;
58071;SDS011;60383;46.626;18.866;2023-02-18T21:20:57;33.78;;;21.10;;
58071;SDS011;60383;46.626;18.866;2023-02-18T21:23:23;32.63;;;20.60;;
58071;SDS011;60383;46.626;18.866;2023-02-18T21:25:48;33.67;;;20.95;;
58071;SDS011;60383;46.626;18.866;2023-02-18T21:28:14;33.38;;;19.67;;
58071;SDS011;60383;46.626;18.866;2023-02-18T21:30:40;33.08;;;21.02;;
58071;SDS011;60383;46.626;18.866;2023-02-18T21:33:08;33.13;;;21.02;;
58071;SDS011;60383;46.626;18.866;2023-02-18T21:35:38;32.22;;;20.60;;
58071;SDS011;60383;46.626;18.866;2023-02-18T21:38:04;31.70;;;20.95;;
58071;SDS011;60383;46.626;18.866;2023-02-18T21:40:31;32.75;;;20.90;;
58071;SDS011;60383;46.626;18.866;2023-02-18T21:42:58;30.85;;;20.75;;
58071;SDS011;60383;46.626;18.866;2023-02-18T21:45:24;30.95;;;20.67;;
58071;SDS011;60383;46.626;18.866;2023-02-18T21:47:51;31.13;;;20.65;;
58071;SDS011;60383;46.626;18.866;2023-02-18T21:50:17;30.40;;;20.27;;
58071;SDS011;60383;46.626;18.866;2023-02-18T21:52:43;34.00;;;20.52;;
58071;SDS011;60383;46.626;18.866;2023-02-18T21:55:11;32.25;;;21.58;;
58071;SDS011;60383;46.626;18.866;2023-02-18T21:57:36;31.10;;;21.48;;
58071;SDS011;60383;46.626;18.866;2023-02-18T22:00:03;32.42;;;20.42;;
58071;SDS011;60383;46.626;18.866;2023-02-18T22:02:32;32.45;;;21.42;;
58071;SDS011;60383;46.626;18.866;2023-02-18T22:04:58;34.22;;;21.75;;
58071;SDS011;60383;46.626;18.866;2023-02-18T22:07:27;33.08;;;21.45;;
58071;SDS011;60383;46.626;18.866;2023-02-18T22:09:53;33.40;;;21.17;;
58071;SDS011;60383;46.626;18.866;2023-02-18T22:12:20;31.05;;;20.30;;
58071;SDS011;60383;46.626;18.866;2023-02-18T22:14:47;32.10;;;20.83;;
58071;SDS011;60383;46.626;18.866;2023-02-18T22:17:12;38.05;;;21.55;;
58071;SDS011;60383;46.626;18.866;2023-02-18T22:19:40;32.45;;;20.50;;
58071;SDS011;60383;46.626;18.866;2023-02-18T22:22:06;30.25;;;20.25;;
58071;SDS011;60383;46.626;18.866;2023-02-18T22:24:31;31.30;;;20.25;;
58071;SDS011;60383;46.626;18.866;2023-02-18T22:26:57;30.20;;;20.75;;
58071;SDS011;60383;46.626;18.866;2023-02-18T22:29:26;30.15;;;20.17;;
58071;SDS011;60383;46.626;18.866;2023-02-18T22:31:53;33.13;;;21.40;;
58071;SDS011;60383;46.626;18.866;2023-02-18T22:34:19;36.53;;;20.45;;
58071;SDS011;60383;46.626;18.866;2023-02-18T22:36:45;29.67;;;19.75;;
58071;SDS011;60383;46.626;18.866;2023-02-18T22:39:11;30.38;;;19.88;;
58071;SDS011;60383;46.626;18.866;2023-02-18T22:41:37;31.55;;;19.88;;
58071;SDS011;60383;46.626;18.866;2023-02-18T22:44:05;31.40;;;19.98;;
58071;SDS011;60383;46.626;18.866;2023-02-18T22:46:32;31.63;;;20.05;;
58071;SDS011;60383;46.626;18.866;2023-02-18T22:48:59;31.95;;;19.77;;
58071;SDS011;60383;46.626;18.866;2023-02-18T22:51:27;33.05;;;21.20;;
58071;SDS011;60383;46.626;18.866;2023-02-18T22:53:55;31.92;;;20.00;;
58071;SDS011;60383;46.626;18.866;2023-02-18T22:56:22;32.80;;;21.13;;
58071;SDS011;60383;46.626;18.866;2023-02-18T22:58:49;30.15;;;20.30;;
58071;SDS011;60383;46.626;18.866;2023-02-18T23:03:47;28.50;;;19.77;;
58071;SDS011;60383;46.626;18.866;2023-02-18T23:06:12;30.75;;;20.40;;
58071;SDS011;60383;46.626;18.866;2023-02-18T23:08:38;30.50;;;19.85;;
58071;SDS011;60383;46.626;18.866;2023-02-18T23:11:05;30.13;;;18.58;;
58071;SDS011;60383;46.626;18.866;2023-02-18T23:13:32;28.08;;;19.42;;
58071;SDS011;60383;46.626;18.866;2023-02-18T23:15:59;29.13;;;19.10;;
58071;SDS011;60383;46.626;18.866;2023-02-18T23:18:26;30.17;;;19.77;;
58071;SDS011;60383;46.626;18.866;2023-02-18T23:20:52;31.95;;;19.83;;
58071;SDS011;60383;46.626;18.866;2023-02-18T23:23:49;30.17;;;18.40;;
58071;SDS011;60383;46.626;18.866;2023-02-18T23:26:19;27.33;;;18.98;;
58071;SDS011;60383;46.626;18.866;2023-02-18T23:28:46;29.73;;;19.15;;
58071;SDS011;60383;46.626;18.866;2023-02-18T23:33:48;28.20;;;18.90;;
58071;SDS011;60383;46.626;18.866;2023-02-18T23:36:21;30.35;;;19.33;;
58071;SDS011;60383;46.626;18.866;2023-02-18T23:38:50;30.70;;;19.40;;
58071;SDS011;60383;46.626;18.866;2023-02-18T23:41:17;30.92;;;20.63;;
58071;SDS011;60383;46.626;18.866;2023-02-18T23:43:43;34.53;;;21.52;;
58071;SDS011;60383;46.626;18.866;2023-02-18T23:46:10;33.35;;;21.63;;
58071;SDS011;60383;46.626;18.866;2023-02-18T23:48:36;32.60;;;20.20;;
58071;SDS011;60383;46.626;18.866;2023-02-18T23:51:03;34.03;;;21.05;;
58071;SDS011;60383;46.626;18.866;2023-02-18T23:53:29;33.30;;;21.45;;
58071;SDS011;60383;46.626;18.866;2023-02-18T23:58:50;30.70;;;19.77;;
